sensor_id;sensor_type;location;lat;lon;timestamp;P1;durP1;ratioP1;P2;durP2;ratioP2
73382;SDS011;61600;48.126;11.542;2023-09-30T00:00:57;23.58;;;6.93;;
73382;SDS011;61600;48.126;11.542;2023-09-30T00:03:23;18.35;;;6.68;;
73382;SDS011;61600;48.126;11.542;2023-09-30T00:05:49;21.88;;;7.07;;
73382;SDS011;61600;48.126;11.542;2023-09-30T00:08:14;18.70;;;6.50;;
73382;SDS011;61600;48.126;11.542;2023-09-30T00:10:40;20.30;;;6.38;;
73382;SDS011;61600;48.126;11.542;2023-09-30T00:13:06;19.77;;;6.63;;
73382;SDS011;61600;48.126;11.542;2023-09-30T00:15:32;20.15;;;6.65;;
73382;SDS011;61600;48.126;11.542;2023-09-30T00:17:59;18.05;;;6.60;;
73382;SDS011;61600;48.126;11.542;2023-09-30T00:20:26;19.58;;;6.15;;
73382;SDS011;61600;48.126;11.542;2023-09-30T00:25:18;15.70;;;6.07;;
73382;SDS011;61600;48.126;11.542;2023-09-30T00:27:46;17.05;;;6.97;;
73382;SDS011;61600;48.126;11.542;2023-09-30T00:32:38;19.95;;;6.25;;
73382;SDS011;61600;48.126;11.542;2023-09-30T00:35:05;18.00;;;6.80;;
73382;SDS011;61600;48.126;11.542;2023-09-30T00:37:37;20.60;;;6.50;;
73382;SDS011;61600;48.126;11.542;2023-09-30T00:40:04;18.30;;;6.45;;
73382;SDS011;61600;48.126;11.542;2023-09-30T00:42:30;21.55;;;6.80;;
73382;SDS011;61600;48.126;11.542;2023-09-30T00:44:56;17.65;;;5.90;;
73382;SDS011;61600;48.126;11.542;2023-09-30T00:47:23;20.67;;;7.32;;
73382;SDS011;61600;48.126;11.542;2023-09-30T00:49:51;19.67;;;6.57;;
73382;SDS011;61600;48.126;11.542;2023-09-30T00:52:19;21.35;;;6.78;;
73382;SDS011;61600;48.126;11.542;2023-09-30T00:54:45;19.23;;;6.47;;
73382;SDS011;61600;48.126;11.542;2023-09-30T00:57:12;24.65;;;7.60;;
73382;SDS011;61600;48.126;11.542;2023-09-30T00:59:38;22.98;;;7.00;;
73382;SDS011;61600;48.126;11.542;2023-09-30T01:02:06;20.38;;;6.85;;
73382;SDS011;61600;48.126;11.542;2023-09-30T01:06:58;21.15;;;7.10;;
73382;SDS011;61600;48.126;11.542;2023-09-30T01:09:24;25.50;;;7.75;;
73382;SDS011;61600;48.126;11.542;2023-09-30T01:11:50;19.35;;;6.50;;
73382;SDS011;61600;48.126;11.542;2023-09-30T01:14:30;24.30;;;6.90;;
73382;SDS011;61600;48.126;11.542;2023-09-30T01:16:57;21.38;;;6.93;;
73382;SDS011;61600;48.126;11.542;2023-09-30T01:19:24;22.75;;;7.07;;
73382;SDS011;61600;48.126;11.542;2023-09-30T01:21:52;20.65;;;6.82;;
73382;SDS011;61600;48.126;11.542;2023-09-30T01:24:20;23.48;;;7.38;;
73382;SDS011;61600;48.126;11.542;2023-09-30T01:26:46;23.23;;;7.80;;
73382;SDS011;61600;48.126;11.542;2023-09-30T01:29:11;20.50;;;7.38;;
73382;SDS011;61600;48.126;11.542;2023-09-30T01:31:37;22.77;;;7.13;;
73382;SDS011;61600;48.126;11.542;2023-09-30T01:34:04;23.83;;;7.25;;
73382;SDS011;61600;48.126;11.542;2023-09-30T01:36:29;22.00;;;7.68;;
73382;SDS011;61600;48.126;11.542;2023-09-30T01:38:55;23.65;;;7.53;;
73382;SDS011;61600;48.126;11.542;2023-09-30T01:41:22;22.70;;;7.20;;
73382;SDS011;61600;48.126;11.542;2023-09-30T01:43:48;22.45;;;7.70;;
73382;SDS011;61600;48.126;11.542;2023-09-30T01:46:14;22.13;;;7.43;;
73382;SDS011;61600;48.126;11.542;2023-09-30T01:48:40;25.60;;;7.53;;
73382;SDS011;61600;48.126;11.542;2023-09-30T01:51:06;21.42;;;7.35;;
73382;SDS011;61600;48.126;11.542;2023-09-30T01:53:32;25.55;;;8.10;;
73382;SDS011;61600;48.126;11.542;2023-09-30T01:55:58;26.00;;;7.65;;
73382;SDS011;61600;48.126;11.542;2023-09-30T02:00:51;22.50;;;7.65;;
73382;SDS011;61600;48.126;11.542;2023-09-30T02:03:17;20.83;;;7.47;;
73382;SDS011;61600;48.126;11.542;2023-09-30T02:05:43;21.40;;;6.90;;
73382;SDS011;61600;48.126;11.542;2023-09-30T02:08:09;24.20;;;7.75;;
73382;SDS011;61600;48.126;11.542;2023-09-30T02:10:35;23.10;;;7.28;;
73382;SDS011;61600;48.126;11.542;2023-09-30T02:13:01;24.85;;;7.68;;
73382;SDS011;61600;48.126;11.542;2023-09-30T02:15:27;21.38;;;7.40;;
73382;SDS011;61600;48.126;11.542;2023-09-30T02:17:53;24.70;;;7.57;;
73382;SDS011;61600;48.126;11.542;2023-09-30T02:20:19;25.27;;;7.88;;
73382;SDS011;61600;48.126;11.542;2023-09-30T02:22:47;22.77;;;6.85;;
73382;SDS011;61600;48.126;11.542;2023-09-30T02:25:14;22.80;;;7.45;;
73382;SDS011;61600;48.126;11.542;2023-09-30T02:27:42;24.52;;;7.13;;
73382;SDS011;61600;48.126;11.542;2023-09-30T02:30:09;26.50;;;7.97;;
73382;SDS011;61600;48.126;11.542;2023-09-30T02:32:39;21.55;;;7.72;;
73382;SDS011;61600;48.126;11.542;2023-09-30T02:35:06;24.92;;;7.72;;
73382;SDS011;61600;48.126;11.542;2023-09-30T02:37:32;24.63;;;8.10;;
73382;SDS011;61600;48.126;11.542;2023-09-30T02:40:01;22.70;;;7.47;;
73382;SDS011;61600;48.126;11.542;2023-09-30T02:42:30;25.05;;;7.88;;
73382;SDS011;61600;48.126;11.542;2023-09-30T02:44:58;21.20;;;7.03;;
73382;SDS011;61600;48.126;11.542;2023-09-30T02:47:25;20.52;;;6.85;;
73382;SDS011;61600;48.126;11.542;2023-09-30T02:49:51;22.83;;;6.70;;
73382;SDS011;61600;48.126;11.542;2023-09-30T02:52:17;26.15;;;7.70;;
73382;SDS011;61600;48.126;11.542;2023-09-30T02:54:42;22.35;;;7.75;;
73382;SDS011;61600;48.126;11.542;2023-09-30T02:57:08;25.92;;;7.65;;
73382;SDS011;61600;48.126;11.542;2023-09-30T02:59:35;24.42;;;7.20;;
73382;SDS011;61600;48.126;11.542;2023-09-30T03:02:01;24.70;;;7.25;;
73382;SDS011;61600;48.126;11.542;2023-09-30T03:06:54;20.50;;;6.57;;
73382;SDS011;61600;48.126;11.542;2023-09-30T03:09:22;22.15;;;6.80;;
73382;SDS011;61600;48.126;11.542;2023-09-30T03:11:47;24.93;;;8.43;;
73382;SDS011;61600;48.126;11.542;2023-09-30T03:14:13;26.23;;;8.05;;
73382;SDS011;61600;48.126;11.542;2023-09-30T03:16:39;25.95;;;7.18;;
73382;SDS011;61600;48.126;11.542;2023-09-30T03:19:06;23.25;;;7.25;;
73382;SDS011;61600;48.126;11.542;2023-09-30T03:21:34;25.92;;;7.50;;
73382;SDS011;61600;48.126;11.542;2023-09-30T03:24:04;24.85;;;7.03;;
73382;SDS011;61600;48.126;11.542;2023-09-30T03:26:31;21.63;;;6.85;;
73382;SDS011;61600;48.126;11.542;2023-09-30T03:28:57;25.88;;;8.02;;
73382;SDS011;61600;48.126;11.542;2023-09-30T03:31:22;25.30;;;7.22;;
73382;SDS011;61600;48.126;11.542;2023-09-30T03:33:49;23.77;;;6.72;;
73382;SDS011;61600;48.126;11.542;2023-09-30T03:36:16;19.73;;;6.25;;
73382;SDS011;61600;48.126;11.542;2023-09-30T03:38:44;21.48;;;6.95;;
73382;SDS011;61600;48.126;11.542;2023-09-30T03:41:10;24.60;;;7.63;;
73382;SDS011;61600;48.126;11.542;2023-09-30T03:43:38;24.02;;;7.15;;
73382;SDS011;61600;48.126;11.542;2023-09-30T03:46:09;24.73;;;8.15;;
73382;SDS011;61600;48.126;11.542;2023-09-30T03:48:37;23.52;;;7.25;;
73382;SDS011;61600;48.126;11.542;2023-09-30T03:51:09;23.73;;;6.78;;
73382;SDS011;61600;48.126;11.542;2023-09-30T03:53:41;21.75;;;7.25;;
73382;SDS011;61600;48.126;11.542;2023-09-30T03:56:08;20.35;;;6.18;;
73382;SDS011;61600;48.126;11.542;2023-09-30T03:58:38;24.98;;;7.10;;
73382;SDS011;61600;48.126;11.542;2023-09-30T04:01:05;23.13;;;6.75;;
73382;SDS011;61600;48.126;11.542;2023-09-30T04:03:31;22.15;;;6.18;;
73382;SDS011;61600;48.126;11.542;2023-09-30T04:06:04;23.98;;;7.03;;
73382;SDS011;61600;48.126;11.542;2023-09-30T04:08:35;23.02;;;7.05;;
73382;SDS011;61600;48.126;11.542;2023-09-30T04:11:01;20.17;;;7.15;;
73382;SDS011;61600;48.126;11.542;2023-09-30T04:13:28;20.15;;;6.45;;
73382;SDS011;61600;48.126;11.542;2023-09-30T04:15:55;19.55;;;6.57;;
73382;SDS011;61600;48.126;11.542;2023-09-30T04:18:23;20.88;;;7.05;;
73382;SDS011;61600;48.126;11.542;2023-09-30T04:20:51;21.88;;;6.97;;
73382;SDS011;61600;48.126;11.542;2023-09-30T04:23:18;35.17;;;8.80;;
73382;SDS011;61600;48.126;11.542;2023-09-30T04:25:47;20.90;;;6.95;;
73382;SDS011;61600;48.126;11.542;2023-09-30T04:28:13;20.67;;;5.97;;
73382;SDS011;61600;48.126;11.542;2023-09-30T04:30:39;19.67;;;6.80;;
73382;SDS011;61600;48.126;11.542;2023-09-30T04:33:06;23.38;;;6.53;;
73382;SDS011;61600;48.126;11.542;2023-09-30T04:35:33;20.77;;;6.40;;
73382;SDS011;61600;48.126;11.542;2023-09-30T04:38:01;20.35;;;6.85;;
73382;SDS011;61600;48.126;11.542;2023-09-30T04:40:27;22.23;;;6.40;;
73382;SDS011;61600;48.126;11.542;2023-09-30T04:42:53;20.15;;;6.20;;
73382;SDS011;61600;48.126;11.542;2023-09-30T04:45:20;17.30;;;6.15;;
73382;SDS011;61600;48.126;11.542;2023-09-30T04:47:49;16.25;;;5.53;;
73382;SDS011;61600;48.126;11.542;2023-09-30T04:50:15;22.17;;;6.32;;
73382;SDS011;61600;48.126;11.542;2023-09-30T04:52:43;20.48;;;6.45;;
73382;SDS011;61600;48.126;11.542;2023-09-30T04:55:10;17.58;;;6.55;;
73382;SDS011;61600;48.126;11.542;2023-09-30T04:57:45;18.02;;;6.72;;
73382;SDS011;61600;48.126;11.542;2023-09-30T05:00:16;23.58;;;6.43;;
73382;SDS011;61600;48.126;11.542;2023-09-30T05:02:44;20.48;;;5.88;;
73382;SDS011;61600;48.126;11.542;2023-09-30T05:05:13;17.67;;;6.07;;
73382;SDS011;61600;48.126;11.542;2023-09-30T05:07:40;19.75;;;6.25;;
73382;SDS011;61600;48.126;11.542;2023-09-30T05:10:06;16.55;;;5.72;;
73382;SDS011;61600;48.126;11.542;2023-09-30T05:12:37;21.45;;;6.28;;
73382;SDS011;61600;48.126;11.542;2023-09-30T05:15:03;18.40;;;5.93;;
73382;SDS011;61600;48.126;11.542;2023-09-30T05:17:31;18.77;;;5.53;;
73382;SDS011;61600;48.126;11.542;2023-09-30T05:19:57;21.00;;;6.53;;
73382;SDS011;61600;48.126;11.542;2023-09-30T05:22:23;19.20;;;6.22;;
73382;SDS011;61600;48.126;11.542;2023-09-30T05:24:50;16.02;;;5.82;;
73382;SDS011;61600;48.126;11.542;2023-09-30T05:27:19;16.35;;;5.95;;
73382;SDS011;61600;48.126;11.542;2023-09-30T05:29:45;19.13;;;5.57;;
73382;SDS011;61600;48.126;11.542;2023-09-30T05:32:14;18.40;;;5.63;;
73382;SDS011;61600;48.126;11.542;2023-09-30T05:34:41;16.73;;;5.53;;
73382;SDS011;61600;48.126;11.542;2023-09-30T05:37:06;21.48;;;5.60;;
73382;SDS011;61600;48.126;11.542;2023-09-30T05:39:32;20.75;;;5.57;;
73382;SDS011;61600;48.126;11.542;2023-09-30T05:41:58;18.73;;;6.68;;
73382;SDS011;61600;48.126;11.542;2023-09-30T05:44:24;20.73;;;5.78;;
73382;SDS011;61600;48.126;11.542;2023-09-30T05:46:53;23.10;;;6.63;;
73382;SDS011;61600;48.126;11.542;2023-09-30T05:49:20;19.67;;;6.07;;
73382;SDS011;61600;48.126;11.542;2023-09-30T05:51:46;18.90;;;6.40;;
73382;SDS011;61600;48.126;11.542;2023-09-30T05:54:13;19.25;;;6.22;;
73382;SDS011;61600;48.126;11.542;2023-09-30T05:56:39;17.17;;;5.97;;
73382;SDS011;61600;48.126;11.542;2023-09-30T05:59:08;18.75;;;6.07;;
73382;SDS011;61600;48.126;11.542;2023-09-30T06:01:35;16.35;;;5.40;;
73382;SDS011;61600;48.126;11.542;2023-09-30T06:04:01;21.85;;;6.10;;
73382;SDS011;61600;48.126;11.542;2023-09-30T06:06:27;18.52;;;6.18;;
73382;SDS011;61600;48.126;11.542;2023-09-30T06:08:59;22.30;;;6.60;;
73382;SDS011;61600;48.126;11.542;2023-09-30T06:11:25;18.25;;;6.03;;
73382;SDS011;61600;48.126;11.542;2023-09-30T06:13:54;16.83;;;5.97;;
73382;SDS011;61600;48.126;11.542;2023-09-30T06:18:46;16.50;;;5.32;;
73382;SDS011;61600;48.126;11.542;2023-09-30T06:21:13;16.30;;;5.20;;
73382;SDS011;61600;48.126;11.542;2023-09-30T06:23:40;18.17;;;5.82;;
73382;SDS011;61600;48.126;11.542;2023-09-30T06:26:08;15.05;;;4.70;;
73382;SDS011;61600;48.126;11.542;2023-09-30T06:28:35;17.08;;;5.40;;
73382;SDS011;61600;48.126;11.542;2023-09-30T06:31:09;14.48;;;5.20;;
73382;SDS011;61600;48.126;11.542;2023-09-30T06:33:35;15.55;;;5.50;;
73382;SDS011;61600;48.126;11.542;2023-09-30T06:36:10;15.73;;;4.88;;
73382;SDS011;61600;48.126;11.542;2023-09-30T06:41:03;14.45;;;4.70;;
73382;SDS011;61600;48.126;11.542;2023-09-30T06:43:29;15.18;;;4.60;;
73382;SDS011;61600;48.126;11.542;2023-09-30T06:45:55;16.90;;;4.35;;
73382;SDS011;61600;48.126;11.542;2023-09-30T06:48:21;14.27;;;4.78;;
73382;SDS011;61600;48.126;11.542;2023-09-30T06:50:48;13.07;;;4.28;;
73382;SDS011;61600;48.126;11.542;2023-09-30T06:53:15;14.07;;;4.05;;
73382;SDS011;61600;48.126;11.542;2023-09-30T06:55:42;13.15;;;4.13;;
73382;SDS011;61600;48.126;11.542;2023-09-30T06:58:09;11.93;;;3.88;;
73382;SDS011;61600;48.126;11.542;2023-09-30T07:00:36;11.07;;;3.78;;
73382;SDS011;61600;48.126;11.542;2023-09-30T07:05:28;12.25;;;3.85;;
73382;SDS011;61600;48.126;11.542;2023-09-30T07:10:20;12.77;;;3.88;;
73382;SDS011;61600;48.126;11.542;2023-09-30T07:12:46;12.45;;;3.75;;
73382;SDS011;61600;48.126;11.542;2023-09-30T07:15:12;12.77;;;4.03;;
73382;SDS011;61600;48.126;11.542;2023-09-30T07:17:39;12.57;;;4.25;;
73382;SDS011;61600;48.126;11.542;2023-09-30T07:22:33;13.55;;;4.50;;
73382;SDS011;61600;48.126;11.542;2023-09-30T07:24:59;11.02;;;3.63;;
73382;SDS011;61600;48.126;11.542;2023-09-30T07:27:25;14.73;;;5.25;;
73382;SDS011;61600;48.126;11.542;2023-09-30T07:29:51;12.90;;;4.10;;
73382;SDS011;61600;48.126;11.542;2023-09-30T07:32:17;10.75;;;3.78;;
73382;SDS011;61600;48.126;11.542;2023-09-30T07:34:44;15.75;;;4.82;;
73382;SDS011;61600;48.126;11.542;2023-09-30T07:37:10;11.88;;;3.83;;
73382;SDS011;61600;48.126;11.542;2023-09-30T07:39:36;13.57;;;4.30;;
73382;SDS011;61600;48.126;11.542;2023-09-30T07:42:02;11.18;;;4.05;;
73382;SDS011;61600;48.126;11.542;2023-09-30T07:44:28;11.73;;;4.00;;
73382;SDS011;61600;48.126;11.542;2023-09-30T07:46:55;8.65;;;3.28;;
73382;SDS011;61600;48.126;11.542;2023-09-30T07:49:20;10.57;;;3.88;;
73382;SDS011;61600;48.126;11.542;2023-09-30T07:51:46;10.60;;;3.25;;
73382;SDS011;61600;48.126;11.542;2023-09-30T07:54:12;11.18;;;3.78;;
73382;SDS011;61600;48.126;11.542;2023-09-30T07:56:38;8.30;;;3.30;;
73382;SDS011;61600;48.126;11.542;2023-09-30T07:59:04;8.77;;;3.60;;
73382;SDS011;61600;48.126;11.542;2023-09-30T08:01:31;13.30;;;4.28;;
73382;SDS011;61600;48.126;11.542;2023-09-30T08:03:58;9.75;;;3.50;;
73382;SDS011;61600;48.126;11.542;2023-09-30T08:06:25;13.48;;;4.30;;
73382;SDS011;61600;48.126;11.542;2023-09-30T08:08:51;11.48;;;3.72;;
73382;SDS011;61600;48.126;11.542;2023-09-30T08:11:20;11.18;;;4.30;;
73382;SDS011;61600;48.126;11.542;2023-09-30T08:13:47;13.60;;;4.35;;
73382;SDS011;61600;48.126;11.542;2023-09-30T08:16:13;10.38;;;3.58;;
73382;SDS011;61600;48.126;11.542;2023-09-30T08:18:40;11.35;;;3.58;;
73382;SDS011;61600;48.126;11.542;2023-09-30T08:21:08;13.77;;;3.85;;
73382;SDS011;61600;48.126;11.542;2023-09-30T08:23:35;11.50;;;3.53;;
73382;SDS011;61600;48.126;11.542;2023-09-30T08:26:02;13.55;;;3.92;;
73382;SDS011;61600;48.126;11.542;2023-09-30T08:28:30;12.32;;;4.13;;
73382;SDS011;61600;48.126;11.542;2023-09-30T08:31:04;11.18;;;3.75;;
73382;SDS011;61600;48.126;11.542;2023-09-30T08:33:30;9.27;;;3.63;;
73382;SDS011;61600;48.126;11.542;2023-09-30T08:36:04;11.85;;;4.03;;
73382;SDS011;61600;48.126;11.542;2023-09-30T08:38:36;16.08;;;5.13;;
73382;SDS011;61600;48.126;11.542;2023-09-30T08:41:03;10.57;;;3.88;;
73382;SDS011;61600;48.126;11.542;2023-09-30T08:43:31;11.82;;;3.83;;
73382;SDS011;61600;48.126;11.542;2023-09-30T08:46:06;12.40;;;3.75;;
73382;SDS011;61600;48.126;11.542;2023-09-30T08:48:33;11.50;;;4.15;;
73382;SDS011;61600;48.126;11.542;2023-09-30T08:51:00;11.68;;;3.72;;
73382;SDS011;61600;48.126;11.542;2023-09-30T08:53:28;17.85;;;4.28;;
73382;SDS011;61600;48.126;11.542;2023-09-30T08:55:55;14.98;;;4.32;;
73382;SDS011;61600;48.126;11.542;2023-09-30T08:58:28;13.40;;;4.32;;
73382;SDS011;61600;48.126;11.542;2023-09-30T09:00:54;10.63;;;3.63;;
73382;SDS011;61600;48.126;11.542;2023-09-30T09:03:21;11.07;;;3.60;;
73382;SDS011;61600;48.126;11.542;2023-09-30T09:05:55;10.57;;;3.38;;
73382;SDS011;61600;48.126;11.542;2023-09-30T09:08:25;11.88;;;3.97;;
73382;SDS011;61600;48.126;11.542;2023-09-30T09:10:56;11.15;;;4.03;;
73382;SDS011;61600;48.126;11.542;2023-09-30T09:13:24;12.73;;;4.10;;
73382;SDS011;61600;48.126;11.542;2023-09-30T09:16:06;12.70;;;4.32;;
73382;SDS011;61600;48.126;11.542;2023-09-30T09:18:33;11.13;;;3.97;;
73382;SDS011;61600;48.126;11.542;2023-09-30T09:21:08;13.43;;;4.78;;
73382;SDS011;61600;48.126;11.542;2023-09-30T09:23:41;11.20;;;3.80;;
73382;SDS011;61600;48.126;11.542;2023-09-30T09:26:32;11.00;;;3.33;;
73382;SDS011;61600;48.126;11.542;2023-09-30T09:29:06;12.07;;;3.75;;
73382;SDS011;61600;48.126;11.542;2023-09-30T09:31:32;16.73;;;5.22;;
73382;SDS011;61600;48.126;11.542;2023-09-30T09:34:04;12.80;;;4.28;;
73382;SDS011;61600;48.126;11.542;2023-09-30T09:36:43;12.20;;;4.07;;
73382;SDS011;61600;48.126;11.542;2023-09-30T09:39:10;11.95;;;5.05;;
73382;SDS011;61600;48.126;11.542;2023-09-30T09:41:52;14.52;;;4.43;;
73382;SDS011;61600;48.126;11.542;2023-09-30T09:44:20;10.50;;;3.45;;
73382;SDS011;61600;48.126;11.542;2023-09-30T09:46:52;11.35;;;4.20;;
73382;SDS011;61600;48.126;11.542;2023-09-30T09:49:19;11.75;;;4.28;;
73382;SDS011;61600;48.126;11.542;2023-09-30T09:51:46;13.00;;;4.32;;
73382;SDS011;61600;48.126;11.542;2023-09-30T09:54:14;14.15;;;4.88;;
73382;SDS011;61600;48.126;11.542;2023-09-30T09:56:43;13.48;;;4.65;;
73382;SDS011;61600;48.126;11.542;2023-09-30T09:59:11;13.05;;;4.00;;
73382;SDS011;61600;48.126;11.542;2023-09-30T10:01:57;10.02;;;3.80;;
73382;SDS011;61600;48.126;11.542;2023-09-30T10:04:33;12.60;;;4.50;;
73382;SDS011;61600;48.126;11.542;2023-09-30T10:06:59;10.32;;;3.83;;
73382;SDS011;61600;48.126;11.542;2023-09-30T10:09:26;9.90;;;3.78;;
73382;SDS011;61600;48.126;11.542;2023-09-30T10:11:57;13.65;;;4.70;;
73382;SDS011;61600;48.126;11.542;2023-09-30T10:14:31;11.38;;;3.85;;
73382;SDS011;61600;48.126;11.542;2023-09-30T10:16:58;10.77;;;3.78;;
73382;SDS011;61600;48.126;11.542;2023-09-30T10:24:56;9.85;;;3.50;;
73382;SDS011;61600;48.126;11.542;2023-09-30T10:29:57;9.10;;;3.10;;
73382;SDS011;61600;48.126;11.542;2023-09-30T10:35:17;7.75;;;3.20;;
73382;SDS011;61600;48.126;11.542;2023-09-30T10:40:50;10.82;;;3.53;;
73382;SDS011;61600;48.126;11.542;2023-09-30T10:43:32;9.95;;;3.30;;
73382;SDS011;61600;48.126;11.542;2023-09-30T10:46:29;7.28;;;3.05;;
73382;SDS011;61600;48.126;11.542;2023-09-30T10:48:56;7.82;;;3.00;;
73382;SDS011;61600;48.126;11.542;2023-09-30T10:51:22;9.95;;;3.55;;
73382;SDS011;61600;48.126;11.542;2023-09-30T10:53:50;9.05;;;3.17;;
73382;SDS011;61600;48.126;11.542;2023-09-30T10:56:18;14.57;;;3.40;;
73382;SDS011;61600;48.126;11.542;2023-09-30T10:58:46;9.32;;;3.33;;
73382;SDS011;61600;48.126;11.542;2023-09-30T11:01:18;10.00;;;3.55;;
73382;SDS011;61600;48.126;11.542;2023-09-30T11:03:45;11.38;;;3.38;;
73382;SDS011;61600;48.126;11.542;2023-09-30T11:06:12;8.27;;;3.45;;
73382;SDS011;61600;48.126;11.542;2023-09-30T11:08:49;9.95;;;3.50;;
73382;SDS011;61600;48.126;11.542;2023-09-30T11:11:41;7.47;;;2.92;;
73382;SDS011;61600;48.126;11.542;2023-09-30T11:16:50;9.70;;;3.58;;
73382;SDS011;61600;48.126;11.542;2023-09-30T11:19:17;8.45;;;2.92;;
73382;SDS011;61600;48.126;11.542;2023-09-30T11:21:47;12.55;;;3.10;;
73382;SDS011;61600;48.126;11.542;2023-09-30T11:24:15;8.38;;;2.95;;
73382;SDS011;61600;48.126;11.542;2023-09-30T11:26:41;9.18;;;3.20;;
73382;SDS011;61600;48.126;11.542;2023-09-30T11:29:14;10.32;;;4.10;;
73382;SDS011;61600;48.126;11.542;2023-09-30T11:31:44;11.70;;;4.50;;
73382;SDS011;61600;48.126;11.542;2023-09-30T11:34:13;10.27;;;3.42;;
73382;SDS011;61600;48.126;11.542;2023-09-30T11:36:47;12.75;;;4.15;;
73382;SDS011;61600;48.126;11.542;2023-09-30T11:39:25;12.48;;;4.65;;
73382;SDS011;61600;48.126;11.542;2023-09-30T11:41:53;10.95;;;3.70;;
73382;SDS011;61600;48.126;11.542;2023-09-30T11:44:21;12.38;;;3.88;;
73382;SDS011;61600;48.126;11.542;2023-09-30T11:52:00;9.98;;;3.97;;
73382;SDS011;61600;48.126;11.542;2023-09-30T11:54:47;10.52;;;3.53;;
73382;SDS011;61600;48.126;11.542;2023-09-30T11:57:13;10.20;;;3.15;;
73382;SDS011;61600;48.126;11.542;2023-09-30T11:59:41;10.07;;;3.83;;
73382;SDS011;61600;48.126;11.542;2023-09-30T12:02:11;12.00;;;4.30;;
73382;SDS011;61600;48.126;11.542;2023-09-30T12:04:45;13.77;;;4.78;;
73382;SDS011;61600;48.126;11.542;2023-09-30T12:07:14;13.48;;;4.07;;
73382;SDS011;61600;48.126;11.542;2023-09-30T12:09:40;12.15;;;4.93;;
73382;SDS011;61600;48.126;11.542;2023-09-30T12:12:07;12.40;;;4.57;;
73382;SDS011;61600;48.126;11.542;2023-09-30T12:14:36;10.95;;;4.60;;
73382;SDS011;61600;48.126;11.542;2023-09-30T12:17:03;11.65;;;4.88;;
73382;SDS011;61600;48.126;11.542;2023-09-30T12:19:29;13.82;;;5.00;;
73382;SDS011;61600;48.126;11.542;2023-09-30T12:21:55;16.40;;;5.40;;
73382;SDS011;61600;48.126;11.542;2023-09-30T12:24:21;15.80;;;4.80;;
73382;SDS011;61600;48.126;11.542;2023-09-30T12:26:48;14.43;;;5.10;;
73382;SDS011;61600;48.126;11.542;2023-09-30T12:29:15;14.57;;;4.88;;
73382;SDS011;61600;48.126;11.542;2023-09-30T12:31:47;15.35;;;5.28;;
73382;SDS011;61600;48.126;11.542;2023-09-30T12:34:16;15.15;;;5.93;;
73382;SDS011;61600;48.126;11.542;2023-09-30T12:36:42;18.92;;;5.82;;
73382;SDS011;61600;48.126;11.542;2023-09-30T12:39:09;16.40;;;5.75;;
73382;SDS011;61600;48.126;11.542;2023-09-30T12:41:41;14.63;;;5.50;;
73382;SDS011;61600;48.126;11.542;2023-09-30T12:44:13;18.70;;;5.50;;
73382;SDS011;61600;48.126;11.542;2023-09-30T12:46:39;16.33;;;6.25;;
73382;SDS011;61600;48.126;11.542;2023-09-30T12:49:08;13.50;;;4.82;;
73382;SDS011;61600;48.126;11.542;2023-09-30T12:51:34;14.15;;;5.30;;
73382;SDS011;61600;48.126;11.542;2023-09-30T12:54:02;14.30;;;5.18;;
73382;SDS011;61600;48.126;11.542;2023-09-30T12:56:28;14.25;;;4.95;;
73382;SDS011;61600;48.126;11.542;2023-09-30T12:58:57;14.98;;;5.10;;
73382;SDS011;61600;48.126;11.542;2023-09-30T13:01:23;14.35;;;4.78;;
73382;SDS011;61600;48.126;11.542;2023-09-30T13:03:49;13.27;;;4.72;;
73382;SDS011;61600;48.126;11.542;2023-09-30T13:06:15;12.75;;;4.68;;
73382;SDS011;61600;48.126;11.542;2023-09-30T13:08:42;13.40;;;5.13;;
73382;SDS011;61600;48.126;11.542;2023-09-30T13:11:08;12.82;;;4.70;;
73382;SDS011;61600;48.126;11.542;2023-09-30T13:13:34;16.42;;;6.18;;
73382;SDS011;61600;48.126;11.542;2023-09-30T13:18:27;17.10;;;5.75;;
73382;SDS011;61600;48.126;11.542;2023-09-30T13:23:20;13.05;;;4.30;;
73382;SDS011;61600;48.126;11.542;2023-09-30T13:25:46;15.05;;;4.82;;
73382;SDS011;61600;48.126;11.542;2023-09-30T13:28:13;12.25;;;5.10;;
73382;SDS011;61600;48.126;11.542;2023-09-30T13:33:06;14.07;;;4.45;;
73382;SDS011;61600;48.126;11.542;2023-09-30T13:35:31;12.88;;;4.68;;
73382;SDS011;61600;48.126;11.542;2023-09-30T13:37:57;12.73;;;4.60;;
73382;SDS011;61600;48.126;11.542;2023-09-30T13:40:25;11.70;;;4.50;;
73382;SDS011;61600;48.126;11.542;2023-09-30T13:42:51;13.50;;;4.15;;
73382;SDS011;61600;48.126;11.542;2023-09-30T13:45:17;14.50;;;4.53;;
73382;SDS011;61600;48.126;11.542;2023-09-30T13:47:43;12.85;;;4.70;;
73382;SDS011;61600;48.126;11.542;2023-09-30T13:50:10;12.23;;;4.20;;
73382;SDS011;61600;48.126;11.542;2023-09-30T13:52:36;12.48;;;4.80;;
73382;SDS011;61600;48.126;11.542;2023-09-30T13:55:02;13.25;;;5.00;;
73382;SDS011;61600;48.126;11.542;2023-09-30T13:57:30;15.68;;;5.43;;
73382;SDS011;61600;48.126;11.542;2023-09-30T13:59:56;14.73;;;5.07;;
73382;SDS011;61600;48.126;11.542;2023-09-30T14:02:22;12.45;;;4.70;;
73382;SDS011;61600;48.126;11.542;2023-09-30T14:04:48;14.40;;;5.63;;
73382;SDS011;61600;48.126;11.542;2023-09-30T14:07:14;13.48;;;4.55;;
73382;SDS011;61600;48.126;11.542;2023-09-30T14:09:40;13.85;;;5.28;;
73382;SDS011;61600;48.126;11.542;2023-09-30T14:12:06;11.52;;;4.78;;
73382;SDS011;61600;48.126;11.542;2023-09-30T14:14:33;15.32;;;5.05;;
73382;SDS011;61600;48.126;11.542;2023-09-30T14:17:00;12.38;;;4.38;;
73382;SDS011;61600;48.126;11.542;2023-09-30T14:19:33;12.60;;;4.43;;
73382;SDS011;61600;48.126;11.542;2023-09-30T14:21:59;12.10;;;4.50;;
73382;SDS011;61600;48.126;11.542;2023-09-30T14:24:26;11.73;;;4.85;;
73382;SDS011;61600;48.126;11.542;2023-09-30T14:29:21;13.02;;;4.70;;
73382;SDS011;61600;48.126;11.542;2023-09-30T14:31:46;11.63;;;4.22;;
73382;SDS011;61600;48.126;11.542;2023-09-30T14:34:12;12.82;;;4.47;;
73382;SDS011;61600;48.126;11.542;2023-09-30T14:36:41;12.45;;;4.55;;
73382;SDS011;61600;48.126;11.542;2023-09-30T14:39:07;12.13;;;4.60;;
73382;SDS011;61600;48.126;11.542;2023-09-30T14:41:34;12.98;;;4.60;;
73382;SDS011;61600;48.126;11.542;2023-09-30T14:44:00;15.00;;;4.47;;
73382;SDS011;61600;48.126;11.542;2023-09-30T14:46:26;13.95;;;4.90;;
73382;SDS011;61600;48.126;11.542;2023-09-30T14:48:53;18.58;;;7.43;;
73382;SDS011;61600;48.126;11.542;2023-09-30T14:51:22;12.18;;;4.70;;
73382;SDS011;61600;48.126;11.542;2023-09-30T14:53:49;15.70;;;4.78;;
73382;SDS011;61600;48.126;11.542;2023-09-30T14:56:15;16.75;;;4.97;;
73382;SDS011;61600;48.126;11.542;2023-09-30T14:58:44;11.52;;;3.75;;
73382;SDS011;61600;48.126;11.542;2023-09-30T15:03:38;12.63;;;4.47;;
73382;SDS011;61600;48.126;11.542;2023-09-30T15:06:04;13.15;;;4.78;;
73382;SDS011;61600;48.126;11.542;2023-09-30T15:08:32;13.23;;;4.80;;
73382;SDS011;61600;48.126;11.542;2023-09-30T15:10:59;14.25;;;4.60;;
73382;SDS011;61600;48.126;11.542;2023-09-30T15:13:27;13.15;;;4.35;;
73382;SDS011;61600;48.126;11.542;2023-09-30T15:15:55;13.77;;;4.93;;
73382;SDS011;61600;48.126;11.542;2023-09-30T15:18:21;15.45;;;4.70;;
73382;SDS011;61600;48.126;11.542;2023-09-30T15:20:48;12.05;;;4.43;;
73382;SDS011;61600;48.126;11.542;2023-09-30T15:23:16;14.15;;;5.22;;
73382;SDS011;61600;48.126;11.542;2023-09-30T15:25:43;12.13;;;3.92;;